createdAt,value
2018-03-01T00:02:14.212Z,-8.78
2018-03-01T00:04:42.669Z,-8.82
2018-03-01T00:07:11.141Z,-8.81
2018-03-01T00:09:39.577Z,-8.81
2018-03-01T00:12:08.022Z,-8.79
2018-03-01T00:14:36.715Z,-8.80
2018-03-01T00:17:05.157Z,-8.82
2018-03-01T00:19:33.582Z,-8.83
2018-03-01T00:22:02.051Z,-8.86
2018-03-01T00:24:30.481Z,-8.87
2018-03-01T00:26:58.912Z,-8.86
2018-03-01T00:29:27.402Z,-8.87
2018-03-01T00:31:55.817Z,-8.87
2018-03-01T00:34:24.264Z,-8.91
2018-03-01T00:36:52.750Z,-8.96
2018-03-01T00:39:21.169Z,-8.92
2018-03-01T00:41:49.586Z,-8.90
2018-03-01T00:44:18.039Z,-8.91
2018-03-01T00:46:46.455Z,-8.94
2018-03-01T00:49:14.893Z,-8.93
2018-03-01T00:51:44.149Z,-8.93
2018-03-01T00:54:12.562Z,-8.93
2018-03-01T00:56:40.978Z,-8.94
2018-03-01T00:59:09.431Z,-8.92
2018-03-01T01:01:37.860Z,-8.91
2018-03-01T01:04:06.292Z,-8.90
2018-03-01T01:06:34.758Z,-8.92
2018-03-01T01:09:03.214Z,-8.89
2018-03-01T01:11:31.641Z,-8.88
2018-03-01T01:14:00.117Z,-8.92
2018-03-01T01:16:28.535Z,-8.87
2018-03-01T01:18:56.946Z,-8.91
2018-03-01T01:21:25.402Z,-8.85
2018-03-01T01:23:53.848Z,-8.90
2018-03-01T01:26:22.275Z,-8.90
2018-03-01T01:28:50.748Z,-8.88
2018-03-01T01:31:19.192Z,-8.88
2018-03-01T01:33:47.629Z,-8.88
2018-03-01T01:36:16.117Z,-8.87
2018-03-01T01:38:44.557Z,-8.91
2018-03-01T01:41:12.993Z,-8.88
2018-03-01T01:43:41.481Z,-8.90
2018-03-01T01:46:09.898Z,-8.87
2018-03-01T01:48:38.340Z,-8.89
2018-03-01T01:51:06.852Z,-8.85
2018-03-01T01:53:35.301Z,-8.82
2018-03-01T01:56:03.769Z,-8.83
2018-03-01T01:58:32.233Z,-8.81
2018-03-01T02:01:00.659Z,-8.79
2018-03-01T02:03:29.101Z,-8.84
2018-03-01T02:05:57.579Z,-8.80
2018-03-01T02:08:26.009Z,-8.77
2018-03-01T02:10:54.431Z,-8.78
2018-03-01T02:13:22.932Z,-8.80
2018-03-01T02:15:51.374Z,-8.80
2018-03-01T02:18:19.824Z,-8.80
2018-03-01T02:20:48.318Z,-8.85
2018-03-01T02:23:16.762Z,-8.88
2018-03-01T02:25:45.188Z,-8.85
2018-03-01T02:28:13.680Z,-8.86
2018-03-01T02:30:42.129Z,-8.88
2018-03-01T02:33:10.563Z,-8.84
2018-03-01T02:35:39.045Z,-8.87
2018-03-01T02:38:07.530Z,-8.87
2018-03-01T02:40:35.983Z,-8.89
2018-03-01T02:43:04.462Z,-8.84
2018-03-01T02:45:32.901Z,-8.85
2018-03-01T02:48:01.342Z,-8.82
2018-03-01T02:50:29.830Z,-8.83
2018-03-01T02:52:58.261Z,-8.92
2018-03-01T02:55:26.687Z,-8.91
2018-03-01T02:57:55.189Z,-8.92
2018-03-01T03:00:23.609Z,-8.93
2018-03-01T03:02:52.030Z,-8.91
2018-03-01T03:05:20.498Z,-8.83
2018-03-01T03:07:48.928Z,-8.87
2018-03-01T03:10:17.346Z,-8.91
2018-03-01T03:12:45.805Z,-8.93
2018-03-01T03:15:14.232Z,-8.93
2018-03-01T03:17:42.646Z,-8.97
2018-03-01T03:20:11.112Z,-8.95
2018-03-01T03:22:39.531Z,-8.93
2018-03-01T03:25:07.954Z,-8.92
2018-03-01T03:27:36.437Z,-8.96
2018-03-01T03:30:04.856Z,-8.95
2018-03-01T03:32:33.282Z,-8.96
2018-03-01T03:35:01.750Z,-8.97
2018-03-01T03:37:30.180Z,-8.95
2018-03-01T03:39:58.646Z,-8.97
2018-03-01T03:42:27.139Z,-8.97
2018-03-01T03:44:55.560Z,-8.97
2018-03-01T03:47:23.984Z,-9.02
2018-03-01T03:49:52.460Z,-9.05
2018-03-01T03:52:20.874Z,-9.11
2018-03-01T03:54:49.291Z,-9.13
2018-03-01T03:57:17.754Z,-9.15
2018-03-01T03:59:46.187Z,-9.16
2018-03-01T04:02:14.614Z,-9.12
2018-03-01T04:04:43.108Z,-9.12
2018-03-01T04:07:11.548Z,-9.12
2018-03-01T04:09:39.987Z,-9.15
2018-03-01T04:12:08.468Z,-9.14
2018-03-01T04:14:36.895Z,-9.17
2018-03-01T04:17:05.318Z,-9.15
2018-03-01T04:19:33.791Z,-9.21
2018-03-01T04:22:02.218Z,-9.26
2018-03-01T04:24:30.657Z,-9.18
2018-03-01T04:26:59.133Z,-9.21
2018-03-01T04:29:27.560Z,-9.18
2018-03-01T04:31:55.997Z,-9.24
2018-03-01T04:34:24.707Z,-9.21
2018-03-01T04:36:53.139Z,-9.24
2018-03-01T04:39:21.562Z,-9.22
2018-03-01T04:41:50.028Z,-9.26
2018-03-01T04:44:18.446Z,-9.29
2018-03-01T04:46:46.870Z,-9.30
2018-03-01T04:49:15.350Z,-9.38
2018-03-01T04:51:43.786Z,-9.34
2018-03-01T04:54:12.210Z,-9.32
2018-03-01T04:56:40.670Z,-9.32
2018-03-01T04:59:09.092Z,-9.39
2018-03-01T05:01:37.510Z,-9.34
2018-03-01T05:04:06.042Z,-9.31
2018-03-01T05:06:34.452Z,-9.31
2018-03-01T05:09:02.899Z,-9.37
2018-03-01T05:11:31.354Z,-9.38
2018-03-01T05:13:59.768Z,-9.39
2018-03-01T05:16:28.186Z,-9.38
2018-03-01T05:18:56.682Z,-9.39
2018-03-01T05:21:25.125Z,-9.36
2018-03-01T05:23:53.555Z,-9.30
2018-03-01T05:26:22.205Z,-9.31
2018-03-01T05:28:50.624Z,-9.34
2018-03-01T05:31:19.095Z,-9.38
2018-03-01T05:33:47.572Z,-9.45
2018-03-01T05:36:15.986Z,-9.50
2018-03-01T05:38:44.413Z,-9.45
2018-03-01T05:41:12.875Z,-9.47
2018-03-01T05:43:41.296Z,-9.49
2018-03-01T05:46:09.756Z,-9.49
2018-03-01T05:48:38.251Z,-9.54
2018-03-01T05:51:06.677Z,-9.47
2018-03-01T05:53:35.098Z,-9.50
2018-03-01T05:56:03.570Z,-9.49
2018-03-01T05:58:32.010Z,-9.47
2018-03-01T06:01:00.457Z,-9.44
2018-03-01T06:03:28.932Z,-9.49
2018-03-01T06:05:57.368Z,-9.49
2018-03-01T06:08:25.785Z,-9.49
2018-03-01T06:10:54.250Z,-9.51
2018-03-01T06:13:22.684Z,-9.55
2018-03-01T06:15:51.126Z,-9.56
2018-03-01T06:18:19.751Z,-9.55
2018-03-01T06:20:48.186Z,-9.57
2018-03-01T06:23:16.629Z,-9.58
2018-03-01T06:25:45.097Z,-9.62
2018-03-01T06:28:13.506Z,-9.57
2018-03-01T06:30:41.930Z,-9.58
2018-03-01T06:33:10.390Z,-9.52
2018-03-01T06:35:38.799Z,-9.51
2018-03-01T06:38:07.224Z,-9.47
2018-03-01T06:40:35.707Z,-9.49
2018-03-01T06:43:04.131Z,-9.50
2018-03-01T06:45:32.554Z,-9.49
2018-03-01T06:48:01.033Z,-9.49
2018-03-01T06:50:29.467Z,-9.49
2018-03-01T06:52:57.895Z,-9.44
2018-03-01T06:55:26.350Z,-9.40
2018-03-01T06:57:54.782Z,-9.39
2018-03-01T07:00:23.206Z,-9.40
2018-03-01T07:02:51.670Z,-9.42
2018-03-01T07:05:20.081Z,-9.34
2018-03-01T07:07:48.507Z,-9.38
2018-03-01T07:10:16.957Z,-9.41
2018-03-01T07:12:45.392Z,-9.46
2018-03-01T07:15:13.827Z,-9.41
2018-03-01T07:17:42.295Z,-9.50
2018-03-01T07:20:10.714Z,-9.46
2018-03-01T07:22:39.163Z,-9.47
2018-03-01T07:25:07.845Z,-9.50
2018-03-01T07:27:36.271Z,-9.55
2018-03-01T07:30:04.686Z,-9.51
2018-03-01T07:32:33.174Z,-9.49
2018-03-01T07:35:01.597Z,-9.46
2018-03-01T07:37:30.028Z,-9.49
2018-03-01T07:39:58.501Z,-9.40
2018-03-01T07:42:26.932Z,-9.40
2018-03-01T07:44:55.361Z,-9.31
2018-03-01T07:47:23.832Z,-9.27
2018-03-01T07:49:52.261Z,-9.21
2018-03-01T07:52:20.682Z,-9.18
2018-03-01T07:54:49.134Z,-9.06
2018-03-01T07:57:17.560Z,-9.00
2018-03-01T07:59:45.978Z,-9.02
2018-03-01T08:02:14.448Z,-8.95
2018-03-01T08:04:42.888Z,-8.88
2018-03-01T08:07:11.319Z,-8.83
2018-03-01T08:09:39.774Z,-8.71
2018-03-01T08:12:08.193Z,-8.66
2018-03-01T08:14:36.999Z,-8.68
2018-03-01T08:17:05.696Z,-8.63
2018-03-01T08:19:34.136Z,-8.57
2018-03-01T08:22:02.554Z,-8.54
2018-03-01T08:24:31.040Z,-8.44
2018-03-01T08:26:59.466Z,-8.39
2018-03-01T08:29:27.901Z,-8.33
2018-03-01T08:31:56.565Z,-8.28
2018-03-01T08:34:24.999Z,-8.30
2018-03-01T08:36:53.422Z,-8.25
2018-03-01T08:39:21.885Z,-8.15
2018-03-01T08:41:50.317Z,-8.22
2018-03-01T08:44:18.743Z,-8.15
2018-03-01T08:46:47.220Z,-7.98
2018-03-01T08:49:15.638Z,-7.96
2018-03-01T08:51:44.089Z,-7.99
2018-03-01T08:54:12.567Z,-7.89
2018-03-01T08:56:40.986Z,-7.84
2018-03-01T08:59:09.418Z,-7.89
2018-03-01T09:01:37.882Z,-7.72
2018-03-01T09:04:06.308Z,-7.65
2018-03-01T09:06:34.726Z,-7.60
2018-03-01T09:09:03.194Z,-7.61
2018-03-01T09:11:31.623Z,-7.59
2018-03-01T09:14:00.050Z,-7.41
2018-03-01T09:16:28.510Z,-7.31
2018-03-01T09:18:56.931Z,-7.25
2018-03-01T09:21:25.350Z,-7.22
2018-03-01T09:23:53.822Z,-6.98
2018-03-01T09:26:22.237Z,-6.80
2018-03-01T09:28:50.655Z,-6.76
2018-03-01T09:31:19.124Z,-6.85
2018-03-01T09:33:47.556Z,-6.79
2018-03-01T09:36:15.984Z,-6.66
2018-03-01T09:38:44.460Z,-6.50
2018-03-01T09:41:12.878Z,-6.48
2018-03-01T09:43:41.297Z,-6.52
2018-03-01T09:46:09.754Z,-6.34
2018-03-01T09:48:38.195Z,-6.11
2018-03-01T09:51:06.624Z,-6.09
2018-03-01T09:53:35.085Z,-6.17
2018-03-01T09:56:03.516Z,-6.15
2018-03-01T09:58:31.943Z,-6.27
2018-03-01T10:01:00.415Z,-6.20
2018-03-01T10:03:28.822Z,-6.15
2018-03-01T10:05:57.248Z,-6.20
2018-03-01T10:08:25.712Z,-6.21
2018-03-01T10:10:54.131Z,-6.18
2018-03-01T10:13:22.554Z,-6.14
2018-03-01T10:15:51.038Z,-6.08
2018-03-01T10:18:19.465Z,-6.05
2018-03-01T10:20:47.888Z,-5.81
2018-03-01T10:23:16.353Z,-5.78
2018-03-01T10:25:44.768Z,-5.68
2018-03-01T10:28:13.189Z,-5.38
2018-03-01T10:30:41.710Z,-5.50
2018-03-01T10:33:10.119Z,-5.68
2018-03-01T10:35:38.526Z,-5.57
2018-03-01T10:38:07.005Z,-5.42
2018-03-01T10:40:35.440Z,-5.33
2018-03-01T10:43:03.886Z,-5.09
2018-03-01T10:45:32.358Z,-5.07
2018-03-01T10:48:00.791Z,-5.11
2018-03-01T10:50:29.228Z,-5.26
2018-03-01T10:52:57.700Z,-5.07
2018-03-01T10:55:26.137Z,-4.99
2018-03-01T10:57:54.568Z,-5.09
2018-03-01T11:00:28.526Z,-5.05
2018-03-01T11:02:56.953Z,-4.98
2018-03-01T11:05:25.380Z,-5.06
2018-03-01T11:07:53.865Z,-4.88
2018-03-01T11:10:22.309Z,-4.83
2018-03-01T11:12:50.735Z,-4.68
2018-03-01T11:15:19.199Z,-4.50
2018-03-01T11:17:47.640Z,-4.62
2018-03-01T11:20:16.090Z,-4.68
2018-03-01T11:22:44.562Z,-4.79
2018-03-01T11:25:12.994Z,-4.69
2018-03-01T11:27:41.489Z,-4.68
2018-03-01T11:30:09.977Z,-4.49
2018-03-01T11:32:38.412Z,-4.31
2018-03-01T11:35:06.874Z,-4.11
2018-03-01T11:37:35.363Z,-4.16
2018-03-01T11:40:03.809Z,-4.11
2018-03-01T11:42:32.235Z,-4.02
2018-03-01T11:45:00.724Z,-3.91
2018-03-01T11:47:29.147Z,-3.92
2018-03-01T11:49:57.575Z,-4.13
2018-03-01T11:52:26.030Z,-4.17
2018-03-01T11:54:54.464Z,-4.01
2018-03-01T11:57:22.905Z,-3.91
2018-03-01T11:59:51.393Z,-3.99
2018-03-01T12:02:19.810Z,-4.04
2018-03-01T12:04:48.218Z,-3.85
2018-03-01T12:07:16.666Z,-3.71
2018-03-01T12:09:45.090Z,-3.66
2018-03-01T12:12:13.504Z,-3.66
2018-03-01T12:14:42.100Z,-3.74
2018-03-01T12:17:10.544Z,-3.83
2018-03-01T12:19:38.954Z,-3.68
2018-03-01T12:22:07.425Z,-3.61
2018-03-01T12:24:35.838Z,-3.56
2018-03-01T12:27:04.247Z,-3.45
2018-03-01T12:29:32.698Z,-3.44
2018-03-01T12:32:01.110Z,-3.50
2018-03-01T12:34:29.533Z,-3.37
2018-03-01T12:36:58.021Z,-3.32
2018-03-01T12:39:26.442Z,-3.27
2018-03-01T12:41:54.865Z,-3.19
2018-03-01T12:44:23.335Z,-3.17
2018-03-01T12:46:51.761Z,-3.16
2018-03-01T12:49:20.205Z,-3.09
2018-03-01T12:51:48.704Z,-2.98
2018-03-01T12:54:17.134Z,-2.79
2018-03-01T12:56:45.568Z,-2.87
2018-03-01T12:59:14.048Z,-2.82
2018-03-01T13:01:42.500Z,-2.71
2018-03-01T13:04:10.949Z,-2.64
2018-03-01T13:06:39.428Z,-2.69
2018-03-01T13:09:07.858Z,-2.84
2018-03-01T13:11:36.296Z,-2.92
2018-03-01T13:14:04.781Z,-2.79
2018-03-01T13:16:33.224Z,-2.72
2018-03-01T13:19:01.650Z,-2.62
2018-03-01T13:21:30.113Z,-2.60
2018-03-01T13:23:58.552Z,-2.43
2018-03-01T13:26:26.996Z,-2.20
2018-03-01T13:28:55.471Z,-2.23
2018-03-01T13:31:28.367Z,-2.33
2018-03-01T13:34:02.695Z,-2.41
2018-03-01T13:36:31.141Z,-2.55
2018-03-01T13:38:59.579Z,-2.68
2018-03-01T13:41:28.058Z,-2.54
2018-03-01T13:43:56.497Z,-2.49
2018-03-01T13:46:28.962Z,-2.22
2018-03-01T13:48:57.594Z,-2.18
2018-03-01T13:51:26.045Z,-2.28
2018-03-01T13:53:54.542Z,-2.37
2018-03-01T13:56:22.985Z,-2.12
2018-03-01T13:58:51.428Z,-1.99
2018-03-01T14:01:19.904Z,-2.02
2018-03-01T14:03:48.362Z,-2.06
2018-03-01T14:06:17.324Z,-2.00
2018-03-01T14:08:45.799Z,-1.97
2018-03-01T14:11:14.227Z,-2.05
2018-03-01T14:13:42.673Z,-2.13
2018-03-01T14:16:11.163Z,-2.18
2018-03-01T14:21:54.226Z,-1.95
2018-03-01T14:24:24.629Z,-2.08
2018-03-01T14:30:03.480Z,-2.51
2018-03-01T14:32:31.947Z,-2.31
2018-03-01T14:35:00.369Z,-2.28
2018-03-01T14:37:28.783Z,-2.32
2018-03-01T14:39:57.243Z,-2.35
2018-03-01T14:42:25.654Z,-2.40
2018-03-01T14:44:54.071Z,-2.45
2018-03-01T14:47:22.529Z,-2.29
2018-03-01T14:49:50.952Z,-2.34
2018-03-01T14:52:19.371Z,-2.34
2018-03-01T14:54:47.829Z,-2.34
2018-03-01T14:57:16.254Z,-2.43
2018-03-01T14:59:44.667Z,-2.56
2018-03-01T15:02:13.122Z,-2.46
2018-03-01T15:04:41.536Z,-2.27
2018-03-01T15:07:09.997Z,-2.26
2018-03-01T15:09:38.438Z,-2.50
2018-03-01T15:12:06.861Z,-2.70
2018-03-01T15:14:35.279Z,-2.72
2018-03-01T15:17:03.730Z,-2.63
2018-03-01T15:19:32.149Z,-2.82
2018-03-01T15:22:00.564Z,-3.03
2018-03-01T15:24:29.262Z,-3.03
2018-03-01T15:26:57.692Z,-3.17
2018-03-01T15:29:26.102Z,-3.31
2018-03-01T15:31:54.572Z,-3.38
2018-03-01T15:34:22.992Z,-3.47
2018-03-01T15:36:51.404Z,-3.63
2018-03-01T15:39:19.860Z,-3.66
2018-03-01T15:41:48.266Z,-3.61
2018-03-01T15:44:16.671Z,-3.66
2018-03-01T15:46:45.147Z,-3.72
2018-03-01T15:49:13.564Z,-3.74
2018-03-01T15:51:41.994Z,-3.86
2018-03-01T15:54:10.448Z,-3.90
2018-03-01T15:56:38.882Z,-3.92
2018-03-01T15:59:07.306Z,-3.98
2018-03-01T16:01:35.935Z,-4.04
2018-03-01T16:04:04.353Z,-4.06
2018-03-01T16:06:32.772Z,-4.14
2018-03-01T16:09:01.238Z,-4.13
2018-03-01T16:11:29.667Z,-4.12
2018-03-01T16:13:58.093Z,-4.10
2018-03-01T16:16:26.570Z,-4.13
2018-03-01T16:18:54.977Z,-4.15
2018-03-01T16:21:23.386Z,-4.22
2018-03-01T16:23:51.838Z,-4.22
2018-03-01T16:26:20.261Z,-4.27
2018-03-01T16:28:48.674Z,-4.29
2018-03-01T16:31:17.139Z,-4.30
2018-03-01T16:33:45.545Z,-4.36
2018-03-01T16:36:13.964Z,-4.36
2018-03-01T16:38:42.431Z,-4.44
2018-03-01T16:41:10.856Z,-4.57
2018-03-01T16:43:39.299Z,-4.64
2018-03-01T16:46:07.958Z,-4.68
2018-03-01T16:48:36.422Z,-4.70
2018-03-01T16:51:04.859Z,-4.68
2018-03-01T16:53:33.374Z,-4.70
2018-03-01T16:56:02.060Z,-4.71
2018-03-01T16:58:30.496Z,-4.73
2018-03-01T17:00:58.989Z,-4.77
2018-03-01T17:03:27.420Z,-4.73
2018-03-01T17:05:55.839Z,-4.80
2018-03-01T17:08:24.300Z,-4.85
2018-03-01T17:10:52.718Z,-4.88
2018-03-01T17:13:21.374Z,-4.98
2018-03-01T17:15:49.985Z,-4.98
2018-03-01T17:18:18.471Z,-5.08
2018-03-01T17:20:46.903Z,-5.10
2018-03-01T17:23:15.366Z,-5.14
2018-03-01T17:25:43.804Z,-5.15
2018-03-01T17:28:12.228Z,-5.16
2018-03-01T17:30:40.684Z,-5.19
2018-03-01T17:33:09.108Z,-5.22
2018-03-01T17:35:37.521Z,-5.20
2018-03-01T17:38:05.980Z,-5.26
2018-03-01T17:40:34.404Z,-5.28
2018-03-01T17:43:02.838Z,-5.31
2018-03-01T17:45:31.316Z,-5.38
2018-03-01T17:47:59.834Z,-5.38
2018-03-01T17:50:28.251Z,-5.42
2018-03-01T17:52:56.717Z,-5.44
2018-03-01T17:55:25.144Z,-5.41
2018-03-01T17:57:53.565Z,-5.46
2018-03-01T18:00:22.043Z,-5.48
2018-03-01T18:02:50.478Z,-5.56
2018-03-01T18:05:18.900Z,-5.57
2018-03-01T18:07:47.367Z,-5.61
2018-03-01T18:10:15.790Z,-5.62
2018-03-01T18:12:44.220Z,-5.66
2018-03-01T18:15:12.688Z,-5.64
2018-03-01T18:17:41.120Z,-5.68
2018-03-01T18:20:09.544Z,-5.71
2018-03-01T18:22:38.008Z,-5.72
2018-03-01T18:25:06.428Z,-5.74
2018-03-01T18:27:34.877Z,-5.81
2018-03-01T18:30:03.369Z,-5.80
2018-03-01T18:32:31.800Z,-5.82
2018-03-01T18:35:00.490Z,-5.84
2018-03-01T18:37:28.972Z,-5.89
2018-03-01T18:39:57.396Z,-5.90
2018-03-01T18:42:25.828Z,-5.92
2018-03-01T18:44:54.302Z,-5.95
2018-03-01T18:47:22.715Z,-5.97
2018-03-01T18:49:51.130Z,-6.00
2018-03-01T18:52:19.669Z,-6.02
2018-03-01T18:54:48.078Z,-6.03
2018-03-01T18:57:16.496Z,-6.03
2018-03-01T18:59:44.946Z,-6.11
2018-03-01T19:02:13.364Z,-6.11
2018-03-01T19:04:41.775Z,-6.15
2018-03-01T19:07:10.242Z,-6.14
2018-03-01T19:09:38.654Z,-6.18
2018-03-01T19:12:07.066Z,-6.21
2018-03-01T19:14:35.770Z,-6.25
2018-03-01T19:17:04.503Z,-6.28
2018-03-01T19:19:32.951Z,-6.29
2018-03-01T19:22:01.434Z,-6.29
2018-03-01T19:24:29.856Z,-6.32
2018-03-01T19:26:58.280Z,-6.33
2018-03-01T19:29:26.744Z,-6.32
2018-03-01T19:31:55.160Z,-6.35
2018-03-01T19:34:23.599Z,-6.36
2018-03-01T19:36:52.128Z,-6.37
2018-03-01T19:39:20.585Z,-6.41
2018-03-01T19:41:48.997Z,-6.42
2018-03-01T19:44:17.477Z,-6.41
2018-03-01T19:46:45.893Z,-6.45
2018-03-01T19:49:14.330Z,-6.48
2018-03-01T19:51:43.142Z,-6.50
2018-03-01T19:54:11.557Z,-6.52
2018-03-01T19:56:39.980Z,-6.54
2018-03-01T19:59:08.467Z,-6.55
2018-03-01T20:01:36.888Z,-6.59
2018-03-01T20:04:05.298Z,-6.62
2018-03-01T20:06:33.782Z,-6.60
2018-03-01T20:09:02.203Z,-6.62
2018-03-01T20:11:30.616Z,-6.68
2018-03-01T20:13:59.072Z,-6.70
2018-03-01T20:16:27.483Z,-6.67
2018-03-01T20:18:55.894Z,-6.70
2018-03-01T20:21:24.350Z,-6.72
2018-03-01T20:23:52.772Z,-6.73
2018-03-01T20:26:21.192Z,-6.74
2018-03-01T20:28:49.660Z,-6.73
2018-03-01T20:31:18.086Z,-6.74
2018-03-01T20:33:46.501Z,-6.77
2018-03-01T20:36:14.949Z,-6.75
2018-03-01T20:38:43.376Z,-6.80
2018-03-01T20:41:11.801Z,-6.81
2018-03-01T20:43:40.273Z,-6.82
2018-03-01T20:46:08.696Z,-6.81
2018-03-01T20:48:37.121Z,-6.85
2018-03-01T20:51:05.575Z,-6.87
2018-03-01T20:53:34.009Z,-6.86
2018-03-01T20:56:02.423Z,-6.91
2018-03-01T20:58:30.878Z,-6.98
2018-03-01T21:00:59.305Z,-7.00
2018-03-01T21:03:27.728Z,-7.05
2018-03-01T21:05:56.183Z,-7.04
2018-03-01T21:08:24.667Z,-7.03
2018-03-01T21:10:53.096Z,-7.08
2018-03-01T21:13:21.562Z,-7.08
2018-03-01T21:15:50.009Z,-7.13
2018-03-01T21:18:18.449Z,-7.15
2018-03-01T21:20:46.925Z,-7.19
2018-03-01T21:23:15.343Z,-7.23
2018-03-01T21:25:43.754Z,-7.23
2018-03-01T21:28:12.207Z,-7.23
2018-03-01T21:30:40.622Z,-7.25
2018-03-01T21:33:09.075Z,-7.27
2018-03-01T21:35:37.557Z,-7.30
2018-03-01T21:38:05.995Z,-7.31
2018-03-01T21:40:34.455Z,-7.33
2018-03-01T21:43:02.937Z,-7.35
2018-03-01T21:45:31.376Z,-7.34
2018-03-01T21:47:59.802Z,-7.36
2018-03-01T21:50:28.271Z,-7.35
2018-03-01T21:52:56.688Z,-7.42
2018-03-01T21:55:25.114Z,-7.40
2018-03-01T22:00:35.617Z,-7.51
2018-03-01T22:03:04.037Z,-7.52
2018-03-01T22:05:32.466Z,-7.50
2018-03-01T22:08:00.947Z,-7.52
2018-03-01T22:10:29.353Z,-7.56
2018-03-01T22:12:57.790Z,-7.61
2018-03-01T22:15:26.242Z,-7.64
2018-03-01T22:17:54.654Z,-7.65
2018-03-01T22:20:23.086Z,-7.61
2018-03-01T22:22:51.572Z,-7.62
2018-03-01T22:25:20.007Z,-7.63
2018-03-01T22:27:48.442Z,-7.61
2018-03-01T22:30:16.913Z,-7.66
2018-03-01T22:32:45.374Z,-7.72
2018-03-01T22:35:13.784Z,-7.75
2018-03-01T22:37:42.263Z,-7.79
2018-03-01T22:40:10.685Z,-7.84
2018-03-01T22:42:39.113Z,-7.83
2018-03-01T22:45:07.582Z,-7.84
2018-03-01T22:47:36.012Z,-7.91
2018-03-01T22:50:04.460Z,-7.90
2018-03-01T22:52:32.998Z,-7.90
2018-03-01T22:55:01.421Z,-7.91
2018-03-01T22:57:29.843Z,-7.95
2018-03-01T22:59:58.302Z,-7.90
2018-03-01T23:02:26.717Z,-7.98
2018-03-01T23:04:55.152Z,-7.94
2018-03-01T23:07:23.616Z,-7.91
2018-03-01T23:09:52.039Z,-7.96
2018-03-01T23:12:20.476Z,-8.07
2018-03-01T23:14:48.944Z,-8.15
2018-03-01T23:17:17.358Z,-8.09
2018-03-01T23:19:45.774Z,-8.12
2018-03-01T23:22:14.252Z,-8.11
2018-03-01T23:24:42.682Z,-8.16
2018-03-01T23:27:11.116Z,-8.17
2018-03-01T23:29:39.580Z,-8.24
2018-03-01T23:32:08.004Z,-8.24
2018-03-01T23:34:36.440Z,-8.22
2018-03-01T23:37:04.918Z,-8.26
2018-03-01T23:39:33.343Z,-8.23
2018-03-01T23:42:01.771Z,-8.26
2018-03-01T23:44:30.260Z,-8.32
2018-03-01T23:46:58.694Z,-8.28
2018-03-01T23:49:27.120Z,-8.30
2018-03-01T23:51:55.587Z,-8.31
2018-03-01T23:54:24.006Z,-8.28
2018-03-01T23:56:52.435Z,-8.31
2018-03-01T23:59:20.894Z,-8.31
